sensor_id;sensor_type;location;lat;lon;timestamp;temperature;humidity
16867;DHT22;8550;52.596;13.320;2022-07-23T00:03:50;16.90;99.90
16867;DHT22;8550;52.596;13.320;2022-07-23T00:08:54;16.80;99.90
16867;DHT22;8550;52.596;13.320;2022-07-23T00:14:01;16.80;99.90
16867;DHT22;8550;52.596;13.320;2022-07-23T00:19:03;16.90;99.90
16867;DHT22;8550;52.596;13.320;2022-07-23T00:24:08;16.90;99.90
16867;DHT22;8550;52.596;13.320;2022-07-23T00:29:15;16.90;99.90
16867;DHT22;8550;52.596;13.320;2022-07-23T00:34:17;16.80;99.90
16867;DHT22;8550;52.596;13.320;2022-07-23T00:39:21;16.90;99.90
16867;DHT22;8550;52.596;13.320;2022-07-23T00:44:24;16.90;99.90
16867;DHT22;8550;52.596;13.320;2022-07-23T00:49:29;16.80;99.90
16867;DHT22;8550;52.596;13.320;2022-07-23T00:54:32;16.60;99.90
16867;DHT22;8550;52.596;13.320;2022-07-23T00:59:34;16.60;99.90
16867;DHT22;8550;52.596;13.320;2022-07-23T01:04:36;16.50;99.90
16867;DHT22;8550;52.596;13.320;2022-07-23T01:09:42;16.40;99.90
16867;DHT22;8550;52.596;13.320;2022-07-23T01:14:44;16.30;99.90
16867;DHT22;8550;52.596;13.320;2022-07-23T01:19:50;16.50;99.90
16867;DHT22;8550;52.596;13.320;2022-07-23T01:24:53;16.30;99.90
16867;DHT22;8550;52.596;13.320;2022-07-23T01:29:57;16.30;99.90
16867;DHT22;8550;52.596;13.320;2022-07-23T01:34:59;16.20;99.90
16867;DHT22;8550;52.596;13.320;2022-07-23T01:40:03;16.10;99.90
16867;DHT22;8550;52.596;13.320;2022-07-23T01:45:07;16.00;99.90
16867;DHT22;8550;52.596;13.320;2022-07-23T01:50:10;16.00;99.90
16867;DHT22;8550;52.596;13.320;2022-07-23T01:55:19;15.80;99.90
16867;DHT22;8550;52.596;13.320;2022-07-23T02:00:21;15.90;99.90
16867;DHT22;8550;52.596;13.320;2022-07-23T02:05:23;15.90;99.90
16867;DHT22;8550;52.596;13.320;2022-07-23T02:10:28;16.00;99.90
16867;DHT22;8550;52.596;13.320;2022-07-23T02:15:30;16.00;99.90
16867;DHT22;8550;52.596;13.320;2022-07-23T02:20:32;16.00;99.90
16867;DHT22;8550;52.596;13.320;2022-07-23T02:25:35;15.90;99.90
16867;DHT22;8550;52.596;13.320;2022-07-23T02:30:37;15.90;99.90
16867;DHT22;8550;52.596;13.320;2022-07-23T02:35:39;16.00;99.90
16867;DHT22;8550;52.596;13.320;2022-07-23T02:40:44;15.90;99.90
16867;DHT22;8550;52.596;13.320;2022-07-23T02:45:46;15.90;99.90
16867;DHT22;8550;52.596;13.320;2022-07-23T02:50:47;15.90;99.90
16867;DHT22;8550;52.596;13.320;2022-07-23T02:55:51;15.80;99.90
16867;DHT22;8550;52.596;13.320;2022-07-23T03:00:54;15.80;99.90
16867;DHT22;8550;52.596;13.320;2022-07-23T03:05:55;15.80;99.90
16867;DHT22;8550;52.596;13.320;2022-07-23T03:10:59;15.90;99.90
16867;DHT22;8550;52.596;13.320;2022-07-23T03:16:01;15.90;99.90
16867;DHT22;8550;52.596;13.320;2022-07-23T03:21:05;15.90;99.90
16867;DHT22;8550;52.596;13.320;2022-07-23T03:26:10;15.90;99.90
16867;DHT22;8550;52.596;13.320;2022-07-23T03:31:12;15.90;99.90
16867;DHT22;8550;52.596;13.320;2022-07-23T03:36:13;15.90;99.90
16867;DHT22;8550;52.596;13.320;2022-07-23T03:41:16;16.00;99.90
16867;DHT22;8550;52.596;13.320;2022-07-23T03:46:19;16.00;99.90
16867;DHT22;8550;52.596;13.320;2022-07-23T03:51:22;16.10;99.90
16867;DHT22;8550;52.596;13.320;2022-07-23T03:56:29;16.20;99.90
16867;DHT22;8550;52.596;13.320;2022-07-23T04:01:35;16.30;99.90
16867;DHT22;8550;52.596;13.320;2022-07-23T04:06:38;16.40;99.90
16867;DHT22;8550;52.596;13.320;2022-07-23T04:11:42;16.50;99.90
16867;DHT22;8550;52.596;13.320;2022-07-23T04:16:44;16.50;99.90
16867;DHT22;8550;52.596;13.320;2022-07-23T04:21:47;16.50;99.90
16867;DHT22;8550;52.596;13.320;2022-07-23T04:26:51;16.40;99.90
16867;DHT22;8550;52.596;13.320;2022-07-23T04:31:53;16.30;99.90
16867;DHT22;8550;52.596;13.320;2022-07-23T04:36:55;16.00;99.90
16867;DHT22;8550;52.596;13.320;2022-07-23T04:41:58;15.70;99.90
16867;DHT22;8550;52.596;13.320;2022-07-23T04:47:00;15.60;99.90
16867;DHT22;8550;52.596;13.320;2022-07-23T04:52:02;15.50;99.90
16867;DHT22;8550;52.596;13.320;2022-07-23T04:57:05;15.50;99.90
16867;DHT22;8550;52.596;13.320;2022-07-23T05:02:08;15.60;99.90
16867;DHT22;8550;52.596;13.320;2022-07-23T05:07:09;15.50;99.90
16867;DHT22;8550;52.596;13.320;2022-07-23T05:12:13;15.40;99.90
16867;DHT22;8550;52.596;13.320;2022-07-23T05:17:14;15.40;99.90
16867;DHT22;8550;52.596;13.320;2022-07-23T05:22:16;15.40;99.90
16867;DHT22;8550;52.596;13.320;2022-07-23T05:27:20;15.30;99.90
16867;DHT22;8550;52.596;13.320;2022-07-23T05:32:21;15.50;99.90
16867;DHT22;8550;52.596;13.320;2022-07-23T05:37:23;15.60;99.90
16867;DHT22;8550;52.596;13.320;2022-07-23T05:42:26;15.70;99.90
16867;DHT22;8550;52.596;13.320;2022-07-23T05:47:28;15.70;99.90
16867;DHT22;8550;52.596;13.320;2022-07-23T05:52:30;15.80;99.90
16867;DHT22;8550;52.596;13.320;2022-07-23T05:57:33;15.80;99.90
16867;DHT22;8550;52.596;13.320;2022-07-23T06:02:35;15.90;99.90
16867;DHT22;8550;52.596;13.320;2022-07-23T06:07:37;15.80;99.90
16867;DHT22;8550;52.596;13.320;2022-07-23T06:12:40;15.70;99.90
16867;DHT22;8550;52.596;13.320;2022-07-23T06:17:42;15.80;99.90
16867;DHT22;8550;52.596;13.320;2022-07-23T06:22:44;15.70;99.90
16867;DHT22;8550;52.596;13.320;2022-07-23T06:27:47;15.80;99.90
16867;DHT22;8550;52.596;13.320;2022-07-23T06:32:50;15.90;99.90
16867;DHT22;8550;52.596;13.320;2022-07-23T06:37:52;15.90;99.90
16867;DHT22;8550;52.596;13.320;2022-07-23T06:42:55;16.00;99.90
16867;DHT22;8550;52.596;13.320;2022-07-23T06:47:57;16.10;99.90
16867;DHT22;8550;52.596;13.320;2022-07-23T06:52:59;16.10;99.90
16867;DHT22;8550;52.596;13.320;2022-07-23T06:58:03;16.20;99.90
16867;DHT22;8550;52.596;13.320;2022-07-23T07:03:05;16.10;99.90
16867;DHT22;8550;52.596;13.320;2022-07-23T07:08:06;16.00;99.90
16867;DHT22;8550;52.596;13.320;2022-07-23T07:13:10;15.90;99.90
16867;DHT22;8550;52.596;13.320;2022-07-23T07:18:11;15.90;99.90
16867;DHT22;8550;52.596;13.320;2022-07-23T07:23:13;16.10;99.90
16867;DHT22;8550;52.596;13.320;2022-07-23T07:28:16;16.40;99.90
16867;DHT22;8550;52.596;13.320;2022-07-23T07:33:18;16.70;99.90
16867;DHT22;8550;52.596;13.320;2022-07-23T07:39:10;16.90;99.90
16867;DHT22;8550;52.596;13.320;2022-07-23T07:44:12;17.20;99.90
16867;DHT22;8550;52.596;13.320;2022-07-23T09:35:48;21.20;99.90
16867;DHT22;8550;52.596;13.320;2022-07-23T09:46:17;21.10;99.90
16867;DHT22;8550;52.596;13.320;2022-07-23T09:51:21;20.90;99.90
16867;DHT22;8550;52.596;13.320;2022-07-23T09:56:27;21.40;99.90
16867;DHT22;8550;52.596;13.320;2022-07-23T10:01:31;21.90;99.90
16867;DHT22;8550;52.596;13.320;2022-07-23T10:06:35;22.30;99.90
16867;DHT22;8550;52.596;13.320;2022-07-23T10:11:38;22.40;99.90
16867;DHT22;8550;52.596;13.320;2022-07-23T10:16:40;22.50;99.90
16867;DHT22;8550;52.596;13.320;2022-07-23T10:21:46;22.20;99.90
16867;DHT22;8550;52.596;13.320;2022-07-23T10:27:00;22.70;99.90
16867;DHT22;8550;52.596;13.320;2022-07-23T10:32:08;23.60;99.10
16867;DHT22;8550;52.596;13.320;2022-07-23T10:37:22;24.00;97.50
16867;DHT22;8550;52.596;13.320;2022-07-23T10:42:33;23.80;98.40
16867;DHT22;8550;52.596;13.320;2022-07-23T10:47:36;23.00;97.70
16867;DHT22;8550;52.596;13.320;2022-07-23T10:53:09;23.00;98.20
16867;DHT22;8550;52.596;13.320;2022-07-23T10:58:18;23.20;98.70
16867;DHT22;8550;52.596;13.320;2022-07-23T11:03:33;24.00;98.40
16867;DHT22;8550;52.596;13.320;2022-07-23T11:08:38;24.80;95.50
16867;DHT22;8550;52.596;13.320;2022-07-23T11:13:48;24.60;96.40
16867;DHT22;8550;52.596;13.320;2022-07-23T11:24:21;26.90;90.30
16867;DHT22;8550;52.596;13.320;2022-07-23T11:29:39;27.10;81.50
16867;DHT22;8550;52.596;13.320;2022-07-23T11:34:43;28.00;83.20
16867;DHT22;8550;52.596;13.320;2022-07-23T11:39:48;29.80;71.70
16867;DHT22;8550;52.596;13.320;2022-07-23T11:44:50;28.20;70.60
16867;DHT22;8550;52.596;13.320;2022-07-23T11:49:53;25.40;82.90
16867;DHT22;8550;52.596;13.320;2022-07-23T11:54:58;24.50;85.70
16867;DHT22;8550;52.596;13.320;2022-07-23T12:00:04;23.90;89.10
16867;DHT22;8550;52.596;13.320;2022-07-23T12:05:07;24.00;90.20
16867;DHT22;8550;52.596;13.320;2022-07-23T12:10:13;24.10;90.40
16867;DHT22;8550;52.596;13.320;2022-07-23T12:15:18;26.20;81.60
16867;DHT22;8550;52.596;13.320;2022-07-23T12:20:22;28.60;72.00
16867;DHT22;8550;52.596;13.320;2022-07-23T12:25:28;27.80;72.00
16867;DHT22;8550;52.596;13.320;2022-07-23T12:30:32;26.90;75.90
16867;DHT22;8550;52.596;13.320;2022-07-23T12:35:36;26.00;76.50
16867;DHT22;8550;52.596;13.320;2022-07-23T12:40:44;25.30;81.70
16867;DHT22;8550;52.596;13.320;2022-07-23T12:45:48;26.50;80.60
16867;DHT22;8550;52.596;13.320;2022-07-23T12:50:52;28.60;70.30
16867;DHT22;8550;52.596;13.320;2022-07-23T12:56:03;28.60;66.90
16867;DHT22;8550;52.596;13.320;2022-07-23T13:01:06;27.50;72.70
16867;DHT22;8550;52.596;13.320;2022-07-23T13:06:09;28.30;72.40
16867;DHT22;8550;52.596;13.320;2022-07-23T13:11:13;29.90;64.10
16867;DHT22;8550;52.596;13.320;2022-07-23T13:16:15;31.30;59.70
16867;DHT22;8550;52.596;13.320;2022-07-23T13:21:17;32.00;55.60
16867;DHT22;8550;52.596;13.320;2022-07-23T13:26:20;30.30;58.00
16867;DHT22;8550;52.596;13.320;2022-07-23T13:31:22;28.00;62.60
16867;DHT22;8550;52.596;13.320;2022-07-23T13:36:23;30.30;61.60
16867;DHT22;8550;52.596;13.320;2022-07-23T13:41:27;32.60;55.70
16867;DHT22;8550;52.596;13.320;2022-07-23T13:46:28;33.40;52.50
16867;DHT22;8550;52.596;13.320;2022-07-23T13:51:31;30.20;54.70
16867;DHT22;8550;52.596;13.320;2022-07-23T13:56:34;27.50;62.80
16867;DHT22;8550;52.596;13.320;2022-07-23T14:01:36;26.20;67.30
16867;DHT22;8550;52.596;13.320;2022-07-23T14:06:38;27.30;62.50
16867;DHT22;8550;52.596;13.320;2022-07-23T14:11:41;27.30;63.90
16867;DHT22;8550;52.596;13.320;2022-07-23T14:16:43;27.00;65.40
16867;DHT22;8550;52.596;13.320;2022-07-23T14:21:45;28.90;59.20
16867;DHT22;8550;52.596;13.320;2022-07-23T14:26:50;27.60;62.90
16867;DHT22;8550;52.596;13.320;2022-07-23T14:31:52;29.30;59.70
16867;DHT22;8550;52.596;13.320;2022-07-23T14:36:53;32.40;52.00
16867;DHT22;8550;52.596;13.320;2022-07-23T14:41:57;28.70;56.00
16867;DHT22;8550;52.596;13.320;2022-07-23T14:46:59;27.60;58.40
16867;DHT22;8550;52.596;13.320;2022-07-23T14:52:01;30.70;54.50
16867;DHT22;8550;52.596;13.320;2022-07-23T14:57:05;32.40;50.70
16867;DHT22;8550;52.596;13.320;2022-07-23T15:02:09;29.00;55.10
16867;DHT22;8550;52.596;13.320;2022-07-23T15:07:10;28.90;56.20
16867;DHT22;8550;52.596;13.320;2022-07-23T15:12:14;28.60;56.50
16867;DHT22;8550;52.596;13.320;2022-07-23T15:17:16;26.80;58.80
16867;DHT22;8550;52.596;13.320;2022-07-23T15:22:18;26.10;60.90
16867;DHT22;8550;52.596;13.320;2022-07-23T15:27:21;25.50;61.70
16867;DHT22;8550;52.596;13.320;2022-07-23T15:32:23;24.90;64.10
16867;DHT22;8550;52.596;13.320;2022-07-23T15:37:26;24.70;66.20
16867;DHT22;8550;52.596;13.320;2022-07-23T15:42:30;25.10;65.00
16867;DHT22;8550;52.596;13.320;2022-07-23T15:47:31;25.20;65.30
16867;DHT22;8550;52.596;13.320;2022-07-23T15:52:33;25.00;64.70
16867;DHT22;8550;52.596;13.320;2022-07-23T15:57:36;25.10;65.30
16867;DHT22;8550;52.596;13.320;2022-07-23T16:02:38;25.70;64.70
16867;DHT22;8550;52.596;13.320;2022-07-23T16:07:40;25.40;63.50
16867;DHT22;8550;52.596;13.320;2022-07-23T16:12:44;25.10;63.80
16867;DHT22;8550;52.596;13.320;2022-07-23T16:17:45;25.30;64.70
16867;DHT22;8550;52.596;13.320;2022-07-23T16:22:47;24.90;65.70
16867;DHT22;8550;52.596;13.320;2022-07-23T16:27:50;24.70;64.70
16867;DHT22;8550;52.596;13.320;2022-07-23T16:32:52;24.90;64.10
16867;DHT22;8550;52.596;13.320;2022-07-23T16:37:54;24.70;62.90
16867;DHT22;8550;52.596;13.320;2022-07-23T16:42:57;25.20;62.70
16867;DHT22;8550;52.596;13.320;2022-07-23T16:47:59;25.60;61.20
16867;DHT22;8550;52.596;13.320;2022-07-23T16:53:01;25.20;61.20
16867;DHT22;8550;52.596;13.320;2022-07-23T16:58:05;24.90;62.80
16867;DHT22;8550;52.596;13.320;2022-07-23T17:03:07;25.00;63.20
16867;DHT22;8550;52.596;13.320;2022-07-23T17:08:09;25.10;62.60
16867;DHT22;8550;52.596;13.320;2022-07-23T17:13:12;25.40;61.60
16867;DHT22;8550;52.596;13.320;2022-07-23T17:18:14;25.40;60.70
16867;DHT22;8550;52.596;13.320;2022-07-23T17:23:16;25.50;59.20
16867;DHT22;8550;52.596;13.320;2022-07-23T17:28:19;26.80;57.70
16867;DHT22;8550;52.596;13.320;2022-07-23T17:33:21;25.70;59.20
16867;DHT22;8550;52.596;13.320;2022-07-23T17:38:23;24.70;61.30
16867;DHT22;8550;52.596;13.320;2022-07-23T17:43:26;24.30;63.00
16867;DHT22;8550;52.596;13.320;2022-07-23T17:48:28;23.90;64.20
16867;DHT22;8550;52.596;13.320;2022-07-23T17:53:30;23.50;64.50
16867;DHT22;8550;52.596;13.320;2022-07-23T17:58:33;23.10;66.60
16867;DHT22;8550;52.596;13.320;2022-07-23T18:03:35;22.90;67.70
16867;DHT22;8550;52.596;13.320;2022-07-23T18:08:39;22.70;68.20
16867;DHT22;8550;52.596;13.320;2022-07-23T18:13:42;22.60;68.80
16867;DHT22;8550;52.596;13.320;2022-07-23T18:18:44;22.40;69.20
16867;DHT22;8550;52.596;13.320;2022-07-23T18:23:47;22.20;69.60
16867;DHT22;8550;52.596;13.320;2022-07-23T18:28:50;22.00;68.80
16867;DHT22;8550;52.596;13.320;2022-07-23T18:33:52;21.80;70.30
16867;DHT22;8550;52.596;13.320;2022-07-23T18:38:54;21.60;71.70
16867;DHT22;8550;52.596;13.320;2022-07-23T18:43:57;21.40;72.80
16867;DHT22;8550;52.596;13.320;2022-07-23T18:48:59;21.30;73.20
16867;DHT22;8550;52.596;13.320;2022-07-23T18:54:01;21.10;75.00
16867;DHT22;8550;52.596;13.320;2022-07-23T18:59:05;20.90;75.10
16867;DHT22;8550;52.596;13.320;2022-07-23T19:04:06;20.70;76.70
16867;DHT22;8550;52.596;13.320;2022-07-23T19:09:09;20.50;78.10
16867;DHT22;8550;52.596;13.320;2022-07-23T19:14:13;20.40;79.00
16867;DHT22;8550;52.596;13.320;2022-07-23T19:19:15;20.20;80.10
16867;DHT22;8550;52.596;13.320;2022-07-23T19:24:17;20.00;82.10
16867;DHT22;8550;52.596;13.320;2022-07-23T19:29:20;19.90;83.10
16867;DHT22;8550;52.596;13.320;2022-07-23T19:34:22;19.70;87.00
16867;DHT22;8550;52.596;13.320;2022-07-23T19:39:24;19.60;85.90
16867;DHT22;8550;52.596;13.320;2022-07-23T19:44:27;19.50;86.70
16867;DHT22;8550;52.596;13.320;2022-07-23T19:49:29;19.40;88.70
16867;DHT22;8550;52.596;13.320;2022-07-23T19:54:31;19.20;90.40
16867;DHT22;8550;52.596;13.320;2022-07-23T19:59:34;19.20;90.30
16867;DHT22;8550;52.596;13.320;2022-07-23T20:04:36;19.10;92.00
16867;DHT22;8550;52.596;13.320;2022-07-23T20:09:38;19.00;91.90
16867;DHT22;8550;52.596;13.320;2022-07-23T20:14:41;18.90;92.10
16867;DHT22;8550;52.596;13.320;2022-07-23T20:19:44;18.80;92.70
16867;DHT22;8550;52.596;13.320;2022-07-23T20:24:45;18.60;92.60
16867;DHT22;8550;52.596;13.320;2022-07-23T20:29:49;18.50;94.40
16867;DHT22;8550;52.596;13.320;2022-07-23T20:34:50;18.40;95.90
16867;DHT22;8550;52.596;13.320;2022-07-23T20:39:52;18.30;97.00
16867;DHT22;8550;52.596;13.320;2022-07-23T20:44:55;18.20;97.00
16867;DHT22;8550;52.596;13.320;2022-07-23T20:49:57;18.10;98.40
16867;DHT22;8550;52.596;13.320;2022-07-23T20:54:59;18.10;98.40
16867;DHT22;8550;52.596;13.320;2022-07-23T21:00:06;17.90;98.60
16867;DHT22;8550;52.596;13.320;2022-07-23T21:05:09;17.70;99.90
16867;DHT22;8550;52.596;13.320;2022-07-23T21:10:11;17.80;99.90
16867;DHT22;8550;52.596;13.320;2022-07-23T21:15:15;17.30;99.90
16867;DHT22;8550;52.596;13.320;2022-07-23T21:20:17;17.00;99.90
16867;DHT22;8550;52.596;13.320;2022-07-23T21:25:19;16.90;99.90
16867;DHT22;8550;52.596;13.320;2022-07-23T21:30:22;16.70;99.90
16867;DHT22;8550;52.596;13.320;2022-07-23T21:35:24;16.60;99.90
16867;DHT22;8550;52.596;13.320;2022-07-23T21:40:26;16.50;99.90
16867;DHT22;8550;52.596;13.320;2022-07-23T21:45:29;16.40;99.90
16867;DHT22;8550;52.596;13.320;2022-07-23T21:50:32;16.30;99.90
16867;DHT22;8550;52.596;13.320;2022-07-23T21:55:33;16.20;99.90
16867;DHT22;8550;52.596;13.320;2022-07-23T22:00:37;16.10;99.90
16867;DHT22;8550;52.596;13.320;2022-07-23T22:05:39;16.00;99.90
16867;DHT22;8550;52.596;13.320;2022-07-23T22:10:41;16.00;99.90
16867;DHT22;8550;52.596;13.320;2022-07-23T22:15:44;16.00;99.90
16867;DHT22;8550;52.596;13.320;2022-07-23T22:20:46;15.90;99.90
16867;DHT22;8550;52.596;13.320;2022-07-23T22:25:47;15.80;99.90
16867;DHT22;8550;52.596;13.320;2022-07-23T22:30:51;15.70;99.90
16867;DHT22;8550;52.596;13.320;2022-07-23T22:35:52;15.70;99.90
16867;DHT22;8550;52.596;13.320;2022-07-23T22:40:54;15.60;99.90
16867;DHT22;8550;52.596;13.320;2022-07-23T22:45:58;15.50;99.90
16867;DHT22;8550;52.596;13.320;2022-07-23T22:51:00;15.40;99.90
16867;DHT22;8550;52.596;13.320;2022-07-23T22:56:02;15.30;99.90
16867;DHT22;8550;52.596;13.320;2022-07-23T23:01:05;15.30;99.90
16867;DHT22;8550;52.596;13.320;2022-07-23T23:06:07;15.20;99.90
16867;DHT22;8550;52.596;13.320;2022-07-23T23:11:09;15.20;99.90
16867;DHT22;8550;52.596;13.320;2022-07-23T23:16:13;15.10;99.90
16867;DHT22;8550;52.596;13.320;2022-07-23T23:21:15;14.90;99.90
16867;DHT22;8550;52.596;13.320;2022-07-23T23:26:20;14.90;99.90
16867;DHT22;8550;52.596;13.320;2022-07-23T23:31:23;14.80;99.90
16867;DHT22;8550;52.596;13.320;2022-07-23T23:36:26;14.70;99.90
16867;DHT22;8550;52.596;13.320;2022-07-23T23:41:29;14.60;99.90
16867;DHT22;8550;52.596;13.320;2022-07-23T23:46:32;14.50;99.90
16867;DHT22;8550;52.596;13.320;2022-07-23T23:51:35;14.40;99.90
16867;DHT22;8550;52.596;13.320;2022-07-23T23:56:41;14.40;99.90
